createdAt,value
2019-01-24T00:02:21.523Z,16.07
2019-01-24T00:04:52.342Z,16.50
2019-01-24T00:07:22.969Z,18.47
2019-01-24T00:09:53.410Z,17.60
2019-01-24T00:12:23.893Z,18.20
2019-01-24T00:14:54.291Z,17.33
2019-01-24T00:17:24.732Z,14.13
2019-01-24T00:19:55.658Z,13.40
2019-01-24T00:22:26.073Z,12.93
2019-01-24T00:24:56.471Z,10.10
2019-01-24T00:27:26.984Z,9.17
2019-01-24T00:29:57.427Z,10.40
2019-01-24T00:32:27.990Z,10.03
2019-01-24T00:34:58.394Z,9.10
2019-01-24T00:37:28.769Z,9.90
2019-01-24T00:39:59.114Z,9.63
2019-01-24T00:42:29.568Z,8.90
2019-01-24T00:44:59.910Z,7.47
2019-01-24T00:47:30.268Z,8.80
2019-01-24T00:50:00.642Z,6.80
2019-01-24T00:52:31.007Z,6.30
2019-01-24T00:55:01.389Z,6.67
2019-01-24T00:57:31.789Z,6.00
2019-01-24T01:00:02.105Z,7.23
2019-01-24T01:02:32.549Z,8.13
2019-01-24T01:05:03.026Z,7.90
2019-01-24T01:07:33.436Z,10.20
2019-01-24T01:10:03.780Z,10.10
2019-01-24T01:12:34.298Z,9.03
2019-01-24T01:15:07.003Z,8.40
2019-01-24T01:17:37.463Z,8.00
2019-01-24T01:20:09.687Z,9.50
2019-01-24T01:22:40.031Z,10.30
2019-01-24T01:25:12.074Z,11.10
2019-01-24T01:27:42.493Z,10.77
2019-01-24T01:30:15.890Z,13.57
2019-01-24T01:32:46.510Z,15.20
2019-01-24T01:35:16.872Z,9.70
2019-01-24T01:37:47.465Z,8.90
2019-01-24T01:40:18.735Z,11.50
2019-01-24T01:42:49.068Z,11.00
2019-01-24T01:45:24.186Z,11.60
2019-01-24T01:47:56.127Z,11.03
2019-01-24T01:50:27.167Z,11.87
2019-01-24T01:52:59.023Z,9.37
2019-01-24T01:55:29.888Z,10.00
2019-01-24T01:58:00.206Z,8.67
2019-01-24T02:00:31.348Z,5.37
2019-01-24T02:03:02.018Z,4.30
2019-01-24T02:05:33.462Z,20.73
2019-01-24T02:08:04.604Z,21.60
2019-01-24T02:10:35.507Z,20.97
2019-01-24T02:13:06.127Z,15.57
2019-01-24T02:15:36.480Z,15.83
2019-01-24T02:18:06.946Z,13.03
2019-01-24T02:20:37.249Z,9.53
2019-01-24T02:23:08.004Z,9.53
2019-01-24T02:25:38.518Z,10.20
2019-01-24T02:28:08.843Z,9.57
2019-01-24T02:30:39.266Z,10.53
2019-01-24T02:33:09.565Z,9.57
2019-01-24T02:35:39.965Z,9.90
2019-01-24T02:38:10.331Z,10.70
2019-01-24T02:40:40.743Z,9.30
2019-01-24T02:43:11.145Z,10.63
2019-01-24T02:45:41.502Z,9.87
2019-01-24T02:48:11.801Z,10.43
2019-01-24T02:50:42.077Z,11.17
2019-01-24T02:53:12.560Z,11.10
2019-01-24T02:55:42.904Z,8.73
2019-01-24T02:58:13.626Z,8.60
2019-01-24T03:00:43.993Z,9.90
2019-01-24T03:03:14.330Z,9.90
2019-01-24T03:05:44.623Z,11.07
2019-01-24T03:08:16.287Z,9.60
2019-01-24T03:10:46.652Z,8.67
2019-01-24T03:13:16.953Z,7.13
2019-01-24T03:15:47.344Z,6.50
2019-01-24T03:18:17.697Z,5.50
2019-01-24T03:20:48.030Z,5.87
2019-01-24T03:23:18.828Z,5.70
2019-01-24T03:25:49.112Z,6.30
2019-01-24T03:28:19.726Z,5.57
2019-01-24T03:30:50.726Z,6.13
2019-01-24T03:33:21.027Z,5.97
2019-01-24T03:35:51.344Z,6.10
2019-01-24T03:38:21.807Z,6.63
2019-01-24T03:40:52.138Z,6.07
2019-01-24T03:43:22.430Z,6.37
2019-01-24T03:45:52.787Z,7.70
2019-01-24T03:48:23.165Z,6.70
2019-01-24T03:50:53.585Z,7.57
2019-01-24T03:53:23.983Z,7.17
2019-01-24T03:55:54.355Z,5.53
2019-01-24T03:58:25.717Z,6.30
2019-01-24T04:00:56.114Z,6.30
2019-01-24T04:03:26.478Z,7.90
2019-01-24T04:05:56.832Z,7.80
2019-01-24T04:08:27.306Z,7.63
2019-01-24T04:10:57.669Z,5.77
2019-01-24T04:13:27.962Z,5.00
2019-01-24T04:15:58.364Z,4.80
2019-01-24T04:18:28.776Z,5.40
2019-01-24T04:20:59.115Z,4.90
2019-01-24T04:23:29.451Z,4.33
2019-01-24T04:25:59.744Z,4.57
2019-01-24T04:28:34.236Z,5.60
2019-01-24T04:31:04.572Z,5.30
2019-01-24T04:33:34.949Z,5.93
2019-01-24T04:36:05.349Z,5.23
2019-01-24T04:38:35.721Z,5.03
2019-01-24T04:41:05.990Z,4.27
2019-01-24T04:43:36.355Z,3.57
2019-01-24T04:46:06.887Z,3.97
2019-01-24T04:48:37.271Z,6.00
2019-01-24T04:51:07.660Z,5.63
2019-01-24T04:53:37.994Z,5.40
2019-01-24T04:56:08.394Z,5.57
2019-01-24T04:58:38.784Z,6.33
2019-01-24T05:01:09.142Z,5.00
2019-01-24T05:03:40.001Z,4.50
2019-01-24T05:06:10.366Z,3.77
2019-01-24T05:08:41.149Z,4.87
2019-01-24T05:11:11.468Z,4.47
2019-01-24T05:13:41.914Z,4.40
2019-01-24T05:16:12.206Z,4.20
2019-01-24T05:18:42.540Z,5.10
2019-01-24T05:21:12.903Z,4.67
2019-01-24T05:23:43.279Z,5.20
2019-01-24T05:26:13.626Z,6.10
2019-01-24T05:28:44.037Z,5.90
2019-01-24T05:31:14.344Z,5.93
2019-01-24T05:33:44.650Z,4.90
2019-01-24T05:36:14.975Z,5.90
2019-01-24T05:38:45.625Z,6.10
2019-01-24T05:41:15.935Z,6.80
2019-01-24T05:43:46.263Z,7.30
2019-01-24T05:46:16.644Z,6.97
2019-01-24T05:48:46.986Z,24.30
2019-01-24T05:51:17.428Z,11.00
2019-01-24T05:53:47.865Z,15.20
2019-01-24T05:56:18.285Z,14.70
2019-01-24T05:58:48.827Z,14.60
2019-01-24T06:01:19.774Z,10.53
2019-01-24T06:03:51.386Z,21.23
2019-01-24T06:06:23.478Z,7.97
2019-01-24T06:08:54.116Z,6.73
2019-01-24T06:11:25.052Z,6.77
2019-01-24T06:13:57.211Z,5.60
2019-01-24T06:16:29.488Z,6.87
2019-01-24T06:19:00.246Z,5.80
2019-01-24T06:21:31.367Z,5.60
2019-01-24T06:24:03.479Z,6.97
2019-01-24T06:26:34.302Z,7.00
2019-01-24T06:29:05.149Z,5.60
2019-01-24T06:31:37.702Z,6.30
2019-01-24T06:34:08.613Z,7.60
2019-01-24T06:36:44.896Z,8.10
2019-01-24T06:39:15.661Z,6.73
2019-01-24T06:41:46.667Z,7.93
2019-01-24T06:44:17.224Z,6.83
2019-01-24T06:46:47.801Z,7.23
2019-01-24T06:49:18.537Z,6.60
2019-01-24T06:51:49.312Z,7.60
2019-01-24T06:54:20.003Z,6.10
2019-01-24T06:56:50.755Z,5.43
2019-01-24T06:59:23.362Z,5.67
2019-01-24T07:01:54.799Z,6.47
2019-01-24T07:04:25.879Z,5.93
2019-01-24T07:06:57.422Z,6.53
2019-01-24T07:09:29.309Z,13.43
2019-01-24T07:12:00.371Z,17.40
2019-01-24T07:14:31.315Z,13.23
2019-01-24T07:17:02.240Z,11.50
2019-01-24T07:19:34.447Z,20.03
2019-01-24T07:22:05.299Z,28.93
2019-01-24T07:24:37.220Z,22.30
2019-01-24T07:27:07.890Z,36.97
2019-01-24T07:29:38.930Z,34.40
2019-01-24T07:32:20.561Z,18.17
2019-01-24T07:34:51.430Z,15.80
2019-01-24T07:37:22.251Z,15.13
2019-01-24T07:39:53.286Z,9.70
2019-01-24T07:42:25.511Z,19.00
2019-01-24T07:44:57.802Z,11.33
2019-01-24T07:47:28.605Z,14.20
2019-01-24T07:49:59.626Z,11.70
2019-01-24T07:52:37.789Z,16.47
2019-01-24T07:58:00.763Z,11.73
2019-01-24T08:00:31.416Z,9.40
2019-01-24T08:03:02.162Z,7.10
2019-01-24T08:05:32.865Z,6.47
2019-01-24T08:08:03.566Z,6.77
2019-01-24T08:10:34.284Z,6.70
2019-01-24T08:13:06.662Z,7.33
2019-01-24T08:15:42.603Z,11.17
2019-01-24T08:18:13.331Z,9.10
2019-01-24T08:20:44.074Z,8.70
2019-01-24T08:23:15.002Z,8.60
2019-01-24T08:25:45.696Z,7.83
2019-01-24T08:28:17.479Z,9.70
2019-01-24T08:30:48.167Z,9.47
2019-01-24T08:33:18.862Z,11.90
2019-01-24T08:35:50.342Z,11.30
2019-01-24T08:38:21.401Z,11.03
2019-01-24T08:40:52.351Z,11.00
2019-01-24T08:43:23.311Z,9.20
2019-01-24T08:45:54.066Z,14.80
2019-01-24T08:48:24.615Z,12.10
2019-01-24T08:50:55.065Z,11.40
2019-01-24T08:53:27.398Z,10.50
2019-01-24T08:55:58.075Z,8.87
2019-01-24T08:58:28.771Z,9.50
2019-01-24T09:00:59.520Z,7.83
2019-01-24T09:03:30.194Z,7.93
2019-01-24T09:06:01.075Z,10.60
2019-01-24T09:08:31.976Z,8.90
2019-01-24T09:11:02.763Z,7.23
2019-01-24T09:13:33.349Z,6.40
2019-01-24T09:16:04.061Z,6.10
2019-01-24T09:18:34.553Z,6.37
2019-01-24T09:21:05.273Z,5.90
2019-01-24T09:23:35.959Z,6.03
2019-01-24T09:26:06.916Z,7.20
2019-01-24T09:28:41.306Z,6.40
2019-01-24T09:31:11.876Z,11.80
2019-01-24T09:33:42.701Z,7.50
2019-01-24T09:36:14.842Z,12.30
2019-01-24T09:38:45.648Z,11.70
2019-01-24T09:41:16.418Z,9.40
2019-01-24T09:43:47.996Z,14.40
2019-01-24T09:46:18.768Z,12.23
2019-01-24T09:48:49.368Z,11.73
2019-01-24T09:51:40.060Z,10.57
2019-01-24T09:54:10.667Z,14.10
2019-01-24T09:56:41.255Z,9.07
2019-01-24T09:59:12.392Z,9.07
2019-01-24T10:01:44.256Z,13.47
2019-01-24T10:04:15.071Z,10.90
2019-01-24T10:06:46.008Z,11.80
2019-01-24T10:09:16.688Z,11.63
2019-01-24T10:11:47.430Z,9.97
2019-01-24T10:14:18.972Z,10.37
2019-01-24T10:16:49.757Z,9.43
2019-01-24T10:19:21.735Z,7.83
2019-01-24T10:21:52.848Z,6.60
2019-01-24T10:24:23.508Z,7.53
2019-01-24T10:26:55.378Z,7.60
2019-01-24T10:29:26.059Z,8.40
2019-01-24T10:31:56.484Z,6.80
2019-01-24T10:34:27.032Z,6.60
2019-01-24T10:36:57.736Z,8.27
2019-01-24T10:39:29.241Z,8.70
2019-01-24T10:42:00.080Z,8.67
2019-01-24T10:44:30.732Z,6.90
2019-01-24T10:47:01.396Z,5.77
2019-01-24T10:49:32.540Z,6.33
2019-01-24T10:52:03.624Z,7.20
2019-01-24T10:54:35.768Z,7.07
2019-01-24T10:57:06.572Z,8.40
2019-01-24T10:59:37.444Z,7.47
2019-01-24T11:02:09.282Z,7.87
2019-01-24T11:04:40.014Z,7.10
2019-01-24T11:07:10.654Z,7.87
2019-01-24T11:09:41.268Z,7.10
2019-01-24T11:12:12.016Z,4.97
2019-01-24T11:14:42.799Z,6.90
2019-01-24T11:17:14.983Z,9.17
2019-01-24T11:19:45.598Z,9.60
2019-01-24T11:22:17.110Z,7.63
2019-01-24T11:24:47.734Z,7.67
2019-01-24T11:27:18.554Z,8.37
2019-01-24T11:29:49.341Z,8.17
2019-01-24T11:32:20.296Z,6.47
2019-01-24T11:34:52.614Z,7.30
2019-01-24T11:37:23.618Z,7.17
2019-01-24T11:39:54.361Z,8.13
2019-01-24T11:42:26.000Z,11.10
2019-01-24T11:44:56.600Z,13.53
2019-01-24T11:47:27.621Z,8.93
2019-01-24T11:49:58.336Z,8.73
2019-01-24T11:52:29.927Z,8.40
2019-01-24T11:55:00.746Z,9.80
2019-01-24T11:57:31.528Z,7.83
2019-01-24T12:00:02.328Z,8.20
2019-01-24T12:02:39.566Z,7.30
2019-01-24T12:05:06.636Z,10.93
2019-01-24T12:07:37.341Z,10.40
2019-01-24T12:10:10.374Z,11.43
2019-01-24T12:12:41.866Z,9.57
2019-01-24T12:15:14.909Z,11.80
2019-01-24T12:17:47.033Z,15.67
2019-01-24T12:20:21.219Z,11.60
2019-01-24T12:22:52.003Z,9.47
2019-01-24T12:25:23.319Z,8.83
2019-01-24T12:27:54.041Z,8.40
2019-01-24T12:30:30.430Z,7.20
2019-01-24T12:33:02.191Z,8.10
2019-01-24T12:35:33.165Z,7.83
2019-01-24T12:38:04.557Z,7.60
2019-01-24T12:40:36.265Z,7.53
2019-01-24T12:43:08.507Z,8.40
2019-01-24T12:45:40.466Z,8.83
2019-01-24T12:48:11.074Z,9.47
2019-01-24T12:50:41.771Z,8.70
2019-01-24T12:53:12.472Z,7.50
2019-01-24T12:55:43.542Z,7.90
2019-01-24T12:58:14.248Z,11.20
2019-01-24T13:00:45.085Z,8.23
2019-01-24T13:03:16.001Z,9.03
2019-01-24T13:05:46.643Z,9.90
2019-01-24T13:08:37.310Z,11.37
2019-01-24T13:11:07.960Z,8.60
2019-01-24T13:13:39.935Z,8.40
2019-01-24T13:16:10.800Z,9.57
2019-01-24T13:18:44.269Z,8.43
2019-01-24T13:21:17.711Z,7.87
2019-01-24T13:24:08.643Z,8.60
2019-01-24T13:26:40.783Z,7.53
2019-01-24T13:29:11.587Z,8.83
2019-01-24T13:31:42.336Z,9.47
2019-01-24T13:34:13.010Z,9.83
2019-01-24T13:36:43.633Z,7.60
2019-01-24T13:39:15.401Z,8.27
2019-01-24T13:41:46.227Z,8.73
2019-01-24T13:44:16.882Z,8.43
2019-01-24T13:46:47.571Z,11.30
2019-01-24T13:49:18.213Z,11.83
2019-01-24T13:51:48.737Z,12.17
2019-01-24T13:54:19.552Z,11.23
2019-01-24T13:56:50.190Z,9.70
2019-01-24T13:59:20.862Z,11.20
2019-01-24T14:01:53.030Z,9.40
2019-01-24T14:04:31.621Z,10.27
2019-01-24T14:07:02.270Z,9.30
2019-01-24T14:09:32.651Z,10.87
2019-01-24T14:12:03.364Z,10.47
2019-01-24T14:14:34.074Z,11.80
2019-01-24T14:17:06.439Z,11.13
2019-01-24T14:19:37.809Z,10.70
2019-01-24T14:22:08.382Z,10.27
2019-01-24T14:24:39.151Z,11.93
2019-01-24T14:27:11.201Z,11.00
2019-01-24T14:29:41.942Z,10.80
2019-01-24T14:32:12.669Z,11.00
2019-01-24T14:34:44.946Z,8.77
2019-01-24T14:37:16.944Z,9.57
2019-01-24T14:39:47.713Z,8.70
2019-01-24T14:42:18.226Z,10.20
2019-01-24T14:44:48.830Z,9.30
2019-01-24T14:47:22.093Z,10.67
2019-01-24T14:49:52.934Z,9.70
2019-01-24T14:52:23.742Z,11.90
2019-01-24T14:54:54.993Z,12.13
2019-01-24T14:57:27.479Z,11.30
2019-01-24T14:59:58.532Z,10.30
2019-01-24T15:02:30.240Z,10.90
2019-01-24T15:05:00.799Z,12.30
2019-01-24T15:07:31.663Z,11.00
2019-01-24T15:10:02.224Z,11.77
2019-01-24T15:12:33.824Z,10.13
2019-01-24T15:15:05.572Z,10.77
2019-01-24T15:17:37.584Z,11.00
2019-01-24T15:20:10.487Z,12.20
2019-01-24T15:22:42.288Z,13.23
2019-01-24T15:25:13.422Z,11.90
2019-01-24T15:27:44.557Z,12.23
2019-01-24T15:30:17.866Z,13.93
2019-01-24T15:32:48.498Z,13.80
2019-01-24T15:35:20.089Z,14.63
2019-01-24T15:37:54.696Z,13.50
2019-01-24T15:40:32.859Z,11.00
2019-01-24T15:43:03.613Z,12.43
2019-01-24T15:45:34.632Z,14.93
2019-01-24T15:48:05.872Z,11.67
2019-01-24T15:50:38.654Z,11.53
2019-01-24T15:53:12.207Z,12.07
2019-01-24T15:55:44.220Z,11.10
2019-01-24T15:58:17.410Z,15.20
2019-01-24T16:00:48.568Z,21.27
2019-01-24T16:03:20.191Z,19.20
2019-01-24T16:05:50.998Z,18.20
2019-01-24T16:08:21.798Z,21.20
2019-01-24T16:10:53.951Z,18.17
2019-01-24T16:13:24.888Z,17.63
2019-01-24T16:15:58.620Z,17.07
2019-01-24T16:18:30.987Z,18.87
2019-01-24T16:21:01.572Z,18.43
2019-01-24T16:23:32.375Z,18.70
2019-01-24T16:26:03.176Z,18.00
2019-01-24T16:28:34.315Z,18.97
2019-01-24T16:31:05.331Z,18.90
2019-01-24T16:33:38.437Z,19.60
2019-01-24T16:36:10.680Z,17.70
2019-01-24T16:38:42.937Z,19.90
2019-01-24T16:41:14.992Z,17.10
2019-01-24T16:43:45.784Z,19.63
2019-01-24T16:46:16.434Z,20.57
2019-01-24T16:48:47.247Z,18.90
2019-01-24T16:51:19.075Z,19.57
2019-01-24T16:53:49.975Z,19.70
2019-01-24T16:56:20.534Z,19.00
2019-01-24T16:58:51.122Z,19.83
2019-01-24T17:01:23.530Z,22.07
2019-01-24T17:03:54.544Z,20.27
2019-01-24T17:06:26.544Z,20.67
2019-01-24T17:08:58.398Z,24.67
2019-01-24T17:11:29.477Z,21.60
2019-01-24T17:14:04.237Z,17.60
2019-01-24T17:16:34.936Z,19.73
2019-01-24T17:19:06.399Z,18.83
2019-01-24T17:21:37.579Z,24.90
2019-01-24T17:24:09.040Z,21.30
2019-01-24T17:26:39.943Z,18.50
2019-01-24T17:29:10.688Z,16.97
2019-01-24T17:31:43.764Z,16.23
2019-01-24T17:34:14.429Z,14.40
2019-01-24T17:36:44.959Z,14.40
2019-01-24T17:39:18.406Z,15.40
2019-01-24T17:41:49.152Z,24.03
2019-01-24T17:44:19.824Z,23.43
2019-01-24T17:46:50.636Z,25.47
2019-01-24T17:49:20.990Z,15.50
2019-01-24T17:51:51.389Z,19.53
2019-01-24T17:54:21.777Z,20.60
2019-01-24T17:56:52.178Z,18.97
2019-01-24T17:59:22.582Z,16.17
2019-01-24T18:01:52.955Z,16.40
2019-01-24T18:04:23.262Z,15.97
2019-01-24T18:06:53.699Z,17.40
2019-01-24T18:09:24.169Z,17.87
2019-01-24T18:11:55.403Z,20.20
2019-01-24T18:14:25.774Z,15.83
2019-01-24T18:16:56.564Z,22.13
2019-01-24T18:19:28.170Z,15.43
2019-01-24T18:21:58.597Z,14.73
2019-01-24T18:24:29.162Z,13.53
2019-01-24T18:27:00.526Z,18.17
2019-01-24T18:29:30.962Z,18.33
2019-01-24T18:32:01.358Z,16.60
2019-01-24T18:34:31.754Z,19.40
2019-01-24T18:37:02.081Z,16.73
2019-01-24T18:39:32.435Z,17.10
2019-01-24T18:42:03.224Z,18.43
2019-01-24T18:44:33.558Z,32.83
2019-01-24T18:47:03.959Z,23.47
2019-01-24T18:49:34.340Z,18.83
2019-01-24T18:52:04.736Z,17.63
2019-01-24T18:54:36.079Z,13.00
2019-01-24T18:57:07.382Z,18.97
2019-01-24T18:59:37.972Z,18.20
2019-01-24T19:02:07.683Z,18.93
2019-01-24T19:04:38.552Z,19.80
2019-01-24T19:07:09.643Z,12.90
2019-01-24T19:09:40.775Z,10.70
2019-01-24T19:12:11.461Z,10.27
2019-01-24T19:14:42.009Z,12.73
2019-01-24T19:17:12.679Z,19.43
2019-01-24T19:19:43.278Z,23.70
2019-01-24T19:22:13.971Z,17.63
2019-01-24T19:24:44.539Z,17.37
2019-01-24T19:27:15.219Z,13.67
2019-01-24T19:29:46.346Z,13.03
2019-01-24T19:32:16.909Z,16.20
2019-01-24T19:34:47.246Z,14.90
2019-01-24T19:37:17.641Z,14.80
2019-01-24T19:39:48.082Z,15.43
2019-01-24T19:42:18.411Z,15.80
2019-01-24T19:44:48.781Z,13.20
2019-01-24T19:47:19.427Z,15.47
2019-01-24T19:49:49.980Z,15.10
2019-01-24T19:52:20.685Z,9.90
2019-01-24T19:54:51.452Z,9.17
2019-01-24T19:57:22.219Z,10.00
2019-01-24T19:59:52.797Z,10.77
2019-01-24T20:02:23.563Z,11.47
2019-01-24T20:04:55.291Z,10.40
2019-01-24T20:07:26.923Z,11.20
2019-01-24T20:09:58.526Z,10.67
2019-01-24T20:12:29.073Z,10.10
2019-01-24T20:14:59.814Z,9.07
2019-01-24T20:17:31.721Z,10.03
2019-01-24T20:20:03.600Z,13.90
2019-01-24T20:22:34.270Z,14.83
2019-01-24T20:25:06.128Z,10.63
2019-01-24T20:27:37.248Z,9.90
2019-01-24T20:30:11.784Z,9.77
2019-01-24T20:32:42.246Z,9.10
2019-01-24T20:35:17.082Z,9.33
2019-01-24T20:37:47.889Z,11.30
2019-01-24T20:40:18.554Z,9.50
2019-01-24T20:42:49.130Z,10.27
2019-01-24T20:45:19.440Z,12.60
2019-01-24T20:47:54.059Z,10.87
2019-01-24T20:50:24.499Z,9.50
2019-01-24T20:52:54.860Z,10.40
2019-01-24T20:55:25.315Z,11.50
2019-01-24T20:57:55.737Z,10.43
2019-01-24T21:00:29.739Z,11.53
2019-01-24T21:03:00.553Z,12.20
2019-01-24T21:05:31.364Z,10.23
2019-01-24T21:08:02.065Z,11.03
2019-01-24T21:10:32.957Z,10.10
2019-01-24T21:13:03.393Z,10.80
2019-01-24T21:15:33.803Z,12.10
2019-01-24T21:18:04.327Z,13.63
2019-01-24T21:20:36.589Z,12.20
2019-01-24T21:23:08.146Z,12.13
2019-01-24T21:25:40.446Z,13.17
2019-01-24T21:28:11.195Z,13.30
2019-01-24T21:30:43.825Z,14.77
2019-01-24T21:33:14.650Z,15.20
2019-01-24T21:35:47.395Z,13.60
2019-01-24T21:38:17.983Z,12.90
2019-01-24T21:40:48.735Z,12.80
2019-01-24T21:43:21.541Z,12.40
2019-01-24T21:45:54.769Z,11.70
2019-01-24T21:48:25.707Z,12.40
2019-01-24T21:50:57.671Z,12.03
2019-01-24T21:53:29.618Z,11.37
2019-01-24T21:56:00.276Z,11.93
2019-01-24T21:58:32.391Z,10.93
2019-01-24T22:01:04.370Z,11.73
2019-01-24T22:03:36.568Z,13.23
2019-01-24T22:06:07.448Z,12.50
2019-01-24T22:08:38.031Z,11.60
2019-01-24T22:11:09.549Z,10.33
2019-01-24T22:13:42.979Z,10.93
2019-01-24T22:16:13.341Z,11.70
2019-01-24T22:18:43.758Z,11.67
2019-01-24T22:21:14.528Z,12.13
2019-01-24T22:23:45.575Z,11.87
2019-01-24T22:26:17.179Z,12.70
2019-01-24T22:28:47.946Z,11.70
2019-01-24T22:31:18.349Z,13.27
2019-01-24T22:33:48.822Z,12.10
2019-01-24T22:36:19.271Z,12.23
2019-01-24T22:38:49.776Z,13.40
2019-01-24T22:41:20.598Z,11.97
2019-01-24T22:43:51.022Z,14.60
2019-01-24T22:46:21.439Z,14.83
2019-01-24T22:48:51.961Z,12.47
2019-01-24T22:51:22.382Z,12.50
2019-01-24T22:53:52.728Z,16.47
2019-01-24T22:56:23.549Z,12.83
2019-01-24T22:58:54.284Z,12.17
2019-01-24T23:01:47.894Z,10.57
2019-01-24T23:04:21.032Z,11.70
2019-01-24T23:06:51.896Z,11.10
2019-01-24T23:09:22.757Z,10.53
2019-01-24T23:11:54.889Z,11.20
2019-01-24T23:15:18.095Z,10.27
2019-01-24T23:17:49.114Z,11.27
2019-01-24T23:20:19.963Z,11.93
2019-01-24T23:22:50.634Z,12.20
2019-01-24T23:25:21.698Z,11.80
2019-01-24T23:27:52.279Z,11.37
2019-01-24T23:30:22.633Z,12.60
2019-01-24T23:32:53.111Z,13.80
2019-01-24T23:35:23.482Z,10.93
2019-01-24T23:37:53.777Z,13.07
2019-01-24T23:40:24.699Z,13.80
2019-01-24T23:42:55.085Z,11.43
2019-01-24T23:45:25.399Z,13.27
2019-01-24T23:48:01.759Z,12.80
2019-01-24T23:50:32.128Z,12.60
2019-01-24T23:53:03.671Z,13.40
2019-01-24T23:55:34.059Z,14.20
2019-01-24T23:58:04.928Z,16.10
